sensor_id;sensor_type;location;lat;lon;timestamp;pressure;altitude;pressure_sealevel;temperature;humidity
52745;BME280;38637;49.984;20.426;2022-09-03T00:01:24;99612.91;;;14.71;62.22
52745;BME280;38637;49.984;20.426;2022-09-03T00:03:56;99616.75;;;14.70;62.14
52745;BME280;38637;49.984;20.426;2022-09-03T00:06:25;99620.31;;;14.71;62.30
52745;BME280;38637;49.984;20.426;2022-09-03T00:11:45;99608.50;;;14.70;62.15
52745;BME280;38637;49.984;20.426;2022-09-03T00:14:13;99611.25;;;14.70;61.92
52745;BME280;38637;49.984;20.426;2022-09-03T00:16:44;99611.25;;;14.70;62.56
52745;BME280;38637;49.984;20.426;2022-09-03T00:19:10;99610.44;;;14.70;62.31
52745;BME280;38637;49.984;20.426;2022-09-03T00:21:42;99618.13;;;14.73;61.68
52745;BME280;38637;49.984;20.426;2022-09-03T00:24:13;99606.00;;;14.74;61.79
52745;BME280;38637;49.984;20.426;2022-09-03T00:26:41;99609.00;;;14.78;61.36
52745;BME280;38637;49.984;20.426;2022-09-03T00:29:27;99612.88;;;14.77;61.08
52745;BME280;38637;49.984;20.426;2022-09-03T00:31:57;99609.81;;;14.78;61.44
52745;BME280;38637;49.984;20.426;2022-09-03T00:36:53;99614.25;;;14.79;62.92
52745;BME280;38637;49.984;20.426;2022-09-03T00:39:19;99615.06;;;14.80;63.15
52745;BME280;38637;49.984;20.426;2022-09-03T00:52:10;99621.94;;;14.77;63.57
52745;BME280;38637;49.984;20.426;2022-09-03T00:57:26;99617.25;;;14.78;63.43
52745;BME280;38637;49.984;20.426;2022-09-03T01:25:16;99599.63;;;14.84;60.14
52745;BME280;38637;49.984;20.426;2022-09-03T01:30:34;99601.88;;;14.77;60.24
52745;BME280;38637;49.984;20.426;2022-09-03T01:33:24;99610.41;;;14.75;60.19
52745;BME280;38637;49.984;20.426;2022-09-03T01:35:54;99606.88;;;14.69;60.40
52745;BME280;38637;49.984;20.426;2022-09-03T01:38:31;99602.22;;;14.65;60.63
52745;BME280;38637;49.984;20.426;2022-09-03T01:43:49;99604.22;;;14.54;61.27
52745;BME280;38637;49.984;20.426;2022-09-03T01:46:20;99598.97;;;14.53;61.37
52745;BME280;38637;49.984;20.426;2022-09-03T01:49:04;99611.63;;;14.48;61.76
52745;BME280;38637;49.984;20.426;2022-09-03T01:51:30;99613.25;;;14.44;62.48
52745;BME280;38637;49.984;20.426;2022-09-03T02:02:17;99601.56;;;14.18;63.41
52745;BME280;38637;49.984;20.426;2022-09-03T02:04:58;99599.38;;;14.15;63.55
52745;BME280;38637;49.984;20.426;2022-09-03T02:07:25;99606.00;;;14.09;63.62
52745;BME280;38637;49.984;20.426;2022-09-03T02:09:52;99608.75;;;14.04;64.46
52745;BME280;38637;49.984;20.426;2022-09-03T02:12:17;99611.50;;;13.99;64.00
52745;BME280;38637;49.984;20.426;2022-09-03T02:14:44;99602.47;;;13.93;64.24
52745;BME280;38637;49.984;20.426;2022-09-03T02:17:10;99600.00;;;13.87;64.75
52745;BME280;38637;49.984;20.426;2022-09-03T02:19:35;99604.38;;;13.83;64.77
52745;BME280;38637;49.984;20.426;2022-09-03T02:22:01;99597.53;;;13.80;64.76
52745;BME280;38637;49.984;20.426;2022-09-03T02:24:27;99603.31;;;13.78;64.49
52745;BME280;38637;49.984;20.426;2022-09-03T02:26:52;99592.34;;;13.73;64.80
52745;BME280;38637;49.984;20.426;2022-09-03T02:29:18;99602.78;;;13.71;64.69
52745;BME280;38637;49.984;20.426;2022-09-03T02:31:43;99600.84;;;13.67;64.86
52745;BME280;38637;49.984;20.426;2022-09-03T02:34:09;99601.97;;;13.61;64.99
52745;BME280;38637;49.984;20.426;2022-09-03T02:36:35;99608.28;;;13.56;65.26
52745;BME280;38637;49.984;20.426;2022-09-03T02:39:01;99608.84;;;13.53;65.21
52745;BME280;38637;49.984;20.426;2022-09-03T02:41:27;99615.69;;;13.50;65.64
52745;BME280;38637;49.984;20.426;2022-09-03T02:46:21;99622.00;;;13.41;65.79
52745;BME280;38637;49.984;20.426;2022-09-03T02:48:48;99620.06;;;13.36;65.60
52745;BME280;38637;49.984;20.426;2022-09-03T02:51:13;99620.63;;;13.33;65.89
52745;BME280;38637;49.984;20.426;2022-09-03T02:53:38;99621.47;;;13.28;66.07
52745;BME280;38637;49.984;20.426;2022-09-03T02:56:04;99615.66;;;13.25;66.33
52745;BME280;38637;49.984;20.426;2022-09-03T02:58:29;99618.09;;;13.21;66.23
52745;BME280;38637;49.984;20.426;2022-09-03T03:00:56;99615.66;;;13.20;66.04
52745;BME280;38637;49.984;20.426;2022-09-03T03:03:21;99617.00;;;13.17;66.13
52745;BME280;38637;49.984;20.426;2022-09-03T03:05:52;99612.63;;;13.16;66.39
52745;BME280;38637;49.984;20.426;2022-09-03T03:08:20;99620.88;;;13.16;66.54
52745;BME280;38637;49.984;20.426;2022-09-03T03:10:46;99615.63;;;13.15;66.28
52745;BME280;38637;49.984;20.426;2022-09-03T03:13:11;99614.25;;;13.12;66.44
52745;BME280;38637;49.984;20.426;2022-09-03T03:15:37;99617.84;;;13.07;66.51
52745;BME280;38637;49.984;20.426;2022-09-03T03:18:02;99622.47;;;13.02;66.70
52745;BME280;38637;49.984;20.426;2022-09-03T03:20:28;99614.22;;;12.97;66.71
52745;BME280;38637;49.984;20.426;2022-09-03T03:22:53;99629.03;;;12.91;66.83
52745;BME280;38637;49.984;20.426;2022-09-03T03:25:18;99629.84;;;12.86;67.34
52745;BME280;38637;49.984;20.426;2022-09-03T03:27:43;99628.19;;;12.85;67.33
52745;BME280;38637;49.984;20.426;2022-09-03T03:30:09;99629.00;;;12.85;67.28
52745;BME280;38637;49.984;20.426;2022-09-03T03:32:35;99626.81;;;12.82;67.07
52745;BME280;38637;49.984;20.426;2022-09-03T03:35:01;99618.06;;;12.80;66.83
52745;BME280;38637;49.984;20.426;2022-09-03T03:37:26;99625.72;;;12.78;66.79
52745;BME280;38637;49.984;20.426;2022-09-03T03:39:51;99616.38;;;12.74;67.08
52745;BME280;38637;49.984;20.426;2022-09-03T03:42:16;99613.91;;;12.73;67.16
52745;BME280;38637;49.984;20.426;2022-09-03T03:44:41;99621.59;;;12.71;67.15
52745;BME280;38637;49.984;20.426;2022-09-03T03:47:08;99624.00;;;12.67;67.53
52745;BME280;38637;49.984;20.426;2022-09-03T03:49:33;99623.19;;;12.67;67.44
52745;BME280;38637;49.984;20.426;2022-09-03T03:51:58;99626.75;;;12.67;67.84
52745;BME280;38637;49.984;20.426;2022-09-03T03:54:24;99629.50;;;12.67;68.02
52745;BME280;38637;49.984;20.426;2022-09-03T03:56:49;99630.31;;;12.62;68.47
52745;BME280;38637;49.984;20.426;2022-09-03T03:59:14;99629.75;;;12.60;68.88
52745;BME280;38637;49.984;20.426;2022-09-03T04:01:39;99633.63;;;12.64;68.86
52745;BME280;38637;49.984;20.426;2022-09-03T04:04:04;99627.59;;;12.68;68.94
52745;BME280;38637;49.984;20.426;2022-09-03T04:06:30;99628.97;;;12.70;69.04
52745;BME280;38637;49.984;20.426;2022-09-03T04:08:55;99635.56;;;12.74;69.17
52745;BME280;38637;49.984;20.426;2022-09-03T04:11:21;99630.38;;;12.78;69.26
52745;BME280;38637;49.984;20.426;2022-09-03T04:13:47;99625.16;;;12.81;69.64
52745;BME280;38637;49.984;20.426;2022-09-03T04:16:14;99632.03;;;12.84;69.62
52745;BME280;38637;49.984;20.426;2022-09-03T04:18:39;99626.00;;;12.87;69.65
52745;BME280;38637;49.984;20.426;2022-09-03T04:23:31;99627.66;;;12.93;69.40
52745;BME280;38637;49.984;20.426;2022-09-03T04:25:57;99624.09;;;12.98;69.45
52745;BME280;38637;49.984;20.426;2022-09-03T04:28:22;99634.25;;;13.02;69.32
52745;BME280;38637;49.984;20.426;2022-09-03T04:30:47;99618.09;;;13.06;69.30
52745;BME280;38637;49.984;20.426;2022-09-03T04:33:12;99610.13;;;13.09;69.07
52745;BME280;38637;49.984;20.426;2022-09-03T04:35:38;99622.22;;;13.14;68.82
52745;BME280;38637;49.984;20.426;2022-09-03T04:38:05;99621.97;;;13.20;68.83
52745;BME280;38637;49.984;20.426;2022-09-03T04:40:30;99613.22;;;13.28;68.12
52745;BME280;38637;49.984;20.426;2022-09-03T04:42:56;99614.59;;;13.36;67.67
52745;BME280;38637;49.984;20.426;2022-09-03T04:45:21;99614.84;;;13.40;67.59
52745;BME280;38637;49.984;20.426;2022-09-03T04:48:02;99626.94;;;13.44;67.58
52745;BME280;38637;49.984;20.426;2022-09-03T04:50:28;99639.56;;;13.50;67.35
52745;BME280;38637;49.984;20.426;2022-09-03T04:52:54;99634.06;;;13.55;67.18
52745;BME280;38637;49.984;20.426;2022-09-03T04:55:22;99626.09;;;13.59;67.15
52745;BME280;38637;49.984;20.426;2022-09-03T04:57:47;99628.28;;;13.62;66.25
52745;BME280;38637;49.984;20.426;2022-09-03T05:00:12;99640.66;;;13.59;66.55
52745;BME280;38637;49.984;20.426;2022-09-03T05:02:38;99645.03;;;13.55;66.61
52745;BME280;38637;49.984;20.426;2022-09-03T05:05:03;99643.41;;;13.54;66.74
52745;BME280;38637;49.984;20.426;2022-09-03T05:07:29;99643.41;;;13.54;66.63
52745;BME280;38637;49.984;20.426;2022-09-03T05:10:02;99645.03;;;13.45;65.84
52745;BME280;38637;49.984;20.426;2022-09-03T05:12:28;99650.25;;;13.36;66.07
52745;BME280;38637;49.984;20.426;2022-09-03T05:14:55;99645.03;;;13.35;66.33
52745;BME280;38637;49.984;20.426;2022-09-03T05:17:20;99647.22;;;13.32;66.49
52745;BME280;38637;49.984;20.426;2022-09-03T05:19:46;99653.25;;;13.40;66.46
52745;BME280;38637;49.984;20.426;2022-09-03T05:22:11;99657.66;;;13.46;66.44
52745;BME280;38637;49.984;20.426;2022-09-03T05:24:36;99661.22;;;13.51;66.17
52745;BME280;38637;49.984;20.426;2022-09-03T05:27:01;99657.94;;;13.60;66.41
52745;BME280;38637;49.984;20.426;2022-09-03T05:29:26;99654.91;;;13.66;65.80
52745;BME280;38637;49.984;20.426;2022-09-03T05:31:52;99662.88;;;13.73;65.78
52745;BME280;38637;49.984;20.426;2022-09-03T05:34:17;99654.34;;;13.79;65.92
52745;BME280;38637;49.984;20.426;2022-09-03T05:36:43;99657.38;;;13.83;65.79
52745;BME280;38637;49.984;20.426;2022-09-03T05:39:09;99651.88;;;13.88;65.64
52745;BME280;38637;49.984;20.426;2022-09-03T05:41:34;99662.56;;;13.95;65.74
52745;BME280;38637;49.984;20.426;2022-09-03T05:43:59;99670.50;;;14.01;65.75
52745;BME280;38637;49.984;20.426;2022-09-03T05:46:26;99671.88;;;14.09;65.42
52745;BME280;38637;49.984;20.426;2022-09-03T05:48:55;99672.41;;;14.16;65.44
52745;BME280;38637;49.984;20.426;2022-09-03T05:51:21;99666.38;;;14.24;65.50
52745;BME280;38637;49.984;20.426;2022-09-03T05:53:47;99655.63;;;14.33;65.24
52745;BME280;38637;49.984;20.426;2022-09-03T05:56:13;99661.38;;;14.37;65.38
52745;BME280;38637;49.984;20.426;2022-09-03T05:58:42;99655.34;;;14.40;65.65
52745;BME280;38637;49.984;20.426;2022-09-03T06:01:12;99644.84;;;14.47;65.24
52745;BME280;38637;49.984;20.426;2022-09-03T06:03:38;99651.50;;;14.51;65.24
52745;BME280;38637;49.984;20.426;2022-09-03T06:06:03;99656.94;;;14.56;65.53
52745;BME280;38637;49.984;20.426;2022-09-03T06:08:29;99650.63;;;14.61;65.26
52745;BME280;38637;49.984;20.426;2022-09-03T06:10:58;99662.38;;;14.71;65.48
52745;BME280;38637;49.984;20.426;2022-09-03T06:13:24;99651.63;;;14.75;65.83
52745;BME280;38637;49.984;20.426;2022-09-03T06:15:49;99651.63;;;14.75;65.96
52745;BME280;38637;49.984;20.426;2022-09-03T06:18:14;99646.66;;;14.82;65.80
52745;BME280;38637;49.984;20.426;2022-09-03T06:20:39;99651.31;;;14.87;66.11
52745;BME280;38637;49.984;20.426;2022-09-03T06:23:05;99653.50;;;14.90;65.79
52745;BME280;38637;49.984;20.426;2022-09-03T06:25:30;99660.00;;;15.04;66.31
52745;BME280;38637;49.984;20.426;2022-09-03T06:27:56;99656.91;;;15.16;66.05
52745;BME280;38637;49.984;20.426;2022-09-03T06:30:21;99665.41;;;15.25;65.90
52745;BME280;38637;49.984;20.426;2022-09-03T06:32:48;99659.56;;;15.31;65.74
52745;BME280;38637;49.984;20.426;2022-09-03T06:35:17;99660.88;;;15.39;65.54
52745;BME280;38637;49.984;20.426;2022-09-03T06:37:42;99664.16;;;15.46;65.49
52745;BME280;38637;49.984;20.426;2022-09-03T06:40:08;99667.16;;;15.50;65.51
52745;BME280;38637;49.984;20.426;2022-09-03T06:42:40;99644.09;;;15.40;65.95
52745;BME280;38637;49.984;20.426;2022-09-03T06:45:06;99662.94;;;15.57;65.72
52745;BME280;38637;49.984;20.426;2022-09-03T06:47:32;99657.94;;;15.65;65.64
52745;BME280;38637;49.984;20.426;2022-09-03T06:49:58;99654.34;;;15.69;65.68
52745;BME280;38637;49.984;20.426;2022-09-03T06:52:24;99665.59;;;15.73;65.70
52745;BME280;38637;49.984;20.426;2022-09-03T06:54:49;99672.19;;;15.77;65.61
52745;BME280;38637;49.984;20.426;2022-09-03T06:57:14;99668.22;;;15.88;65.61
52745;BME280;38637;49.984;20.426;2022-09-03T06:59:40;99674.22;;;15.95;65.56
52745;BME280;38637;49.984;20.426;2022-09-03T07:02:07;99665.91;;;16.00;65.62
52745;BME280;38637;49.984;20.426;2022-09-03T07:04:32;99673.53;;;16.08;65.70
52745;BME280;38637;49.984;20.426;2022-09-03T07:06:58;99673.78;;;16.12;65.65
52745;BME280;38637;49.984;20.426;2022-09-03T07:09:24;99678.69;;;16.15;65.61
52745;BME280;38637;49.984;20.426;2022-09-03T07:11:51;99683.94;;;16.17;65.59
52745;BME280;38637;49.984;20.426;2022-09-03T07:14:16;99675.38;;;16.18;65.20
52745;BME280;38637;49.984;20.426;2022-09-03T07:16:42;99673.38;;;16.24;65.50
52745;BME280;38637;49.984;20.426;2022-09-03T07:19:08;99684.88;;;16.31;65.27
52745;BME280;38637;49.984;20.426;2022-09-03T07:21:34;99670.19;;;16.41;64.83
52745;BME280;38637;49.984;20.426;2022-09-03T07:24:03;99681.22;;;16.41;64.72
52745;BME280;38637;49.984;20.426;2022-09-03T07:26:29;99680.63;;;16.44;65.08
52745;BME280;38637;49.984;20.426;2022-09-03T07:28:56;99687.94;;;16.53;65.11
52745;BME280;38637;49.984;20.426;2022-09-03T07:31:22;99689.75;;;16.63;64.66
52745;BME280;38637;49.984;20.426;2022-09-03T07:33:54;99686.06;;;16.73;64.66
52745;BME280;38637;49.984;20.426;2022-09-03T07:36:20;99687.69;;;16.74;64.27
52745;BME280;38637;49.984;20.426;2022-09-03T07:38:45;99686.59;;;16.75;64.55
52745;BME280;38637;49.984;20.426;2022-09-03T07:41:12;99695.94;;;16.79;64.33
52745;BME280;38637;49.984;20.426;2022-09-03T07:43:41;99692.53;;;16.87;64.41
52745;BME280;38637;49.984;20.426;2022-09-03T07:46:08;99700.81;;;16.87;64.21
52745;BME280;38637;49.984;20.426;2022-09-03T07:48:37;99696.75;;;16.80;64.29
52745;BME280;38637;49.984;20.426;2022-09-03T07:51:02;99699.50;;;16.80;64.83
52745;BME280;38637;49.984;20.426;2022-09-03T07:53:28;99702.16;;;16.90;64.95
52745;BME280;38637;49.984;20.426;2022-09-03T07:55:59;99701.25;;;16.94;64.08
52745;BME280;38637;49.984;20.426;2022-09-03T07:58:27;99694.34;;;16.97;64.34
52745;BME280;38637;49.984;20.426;2022-09-03T08:00:52;99690.16;;;16.99;64.29
52745;BME280;38637;49.984;20.426;2022-09-03T08:03:17;99690.69;;;17.02;64.28
52745;BME280;38637;49.984;20.426;2022-09-03T08:05:43;99687.56;;;17.08;64.40
52745;BME280;38637;49.984;20.426;2022-09-03T08:08:08;99690.19;;;17.18;64.53
52745;BME280;38637;49.984;20.426;2022-09-03T08:10:34;99695.75;;;17.32;64.18
52745;BME280;38637;49.984;20.426;2022-09-03T08:13:00;99699.81;;;17.40;63.98
52745;BME280;38637;49.984;20.426;2022-09-03T08:15:25;99699.97;;;17.49;63.05
52745;BME280;38637;49.984;20.426;2022-09-03T08:17:50;99701.59;;;17.50;62.75
52745;BME280;38637;49.984;20.426;2022-09-03T08:20:16;99696.38;;;17.48;62.98
52745;BME280;38637;49.984;20.426;2022-09-03T08:22:41;99695.84;;;17.46;63.41
52745;BME280;38637;49.984;20.426;2022-09-03T08:25:07;99699.34;;;17.52;63.35
52745;BME280;38637;49.984;20.426;2022-09-03T08:27:32;99693.31;;;17.50;62.55
52745;BME280;38637;49.984;20.426;2022-09-03T08:29:57;99697.19;;;17.49;63.18
52745;BME280;38637;49.984;20.426;2022-09-03T08:32:23;99703.00;;;17.47;63.00
52745;BME280;38637;49.984;20.426;2022-09-03T08:34:48;99712.63;;;17.50;63.48
52745;BME280;38637;49.984;20.426;2022-09-03T08:37:14;99703.75;;;17.53;63.13
52745;BME280;38637;49.984;20.426;2022-09-03T08:39:39;99698.97;;;17.58;62.90
52745;BME280;38637;49.984;20.426;2022-09-03T08:42:09;99710.22;;;17.62;63.00
52745;BME280;38637;49.984;20.426;2022-09-03T08:47:13;99698.50;;;17.70;62.29
52745;BME280;38637;49.984;20.426;2022-09-03T08:52:17;99704.63;;;17.86;62.57
52745;BME280;38637;49.984;20.426;2022-09-03T08:54:44;99707.00;;;17.92;62.34
52745;BME280;38637;49.984;20.426;2022-09-03T08:57:10;99705.59;;;17.95;61.90
52745;BME280;38637;49.984;20.426;2022-09-03T08:59:37;99698.72;;;17.92;62.01
52745;BME280;38637;49.984;20.426;2022-09-03T09:02:07;99702.63;;;17.91;62.38
52745;BME280;38637;49.984;20.426;2022-09-03T09:04:46;99692.16;;;17.88;62.44
52745;BME280;38637;49.984;20.426;2022-09-03T09:07:22;99691.84;;;17.90;62.36
52745;BME280;38637;49.984;20.426;2022-09-03T09:17:41;99686.13;;;17.86;63.07
52745;BME280;38637;49.984;20.426;2022-09-03T09:20:28;99687.13;;;17.90;63.05
52745;BME280;38637;49.984;20.426;2022-09-03T09:23:00;99688.69;;;17.97;63.10
52745;BME280;38637;49.984;20.426;2022-09-03T09:25:27;99692.59;;;17.96;62.55
52745;BME280;38637;49.984;20.426;2022-09-03T09:28:01;99695.44;;;17.90;62.21
52745;BME280;38637;49.984;20.426;2022-09-03T09:30:27;99701.81;;;17.91;62.76
52745;BME280;38637;49.984;20.426;2022-09-03T09:32:53;99707.75;;;17.98;62.53
52745;BME280;38637;49.984;20.426;2022-09-03T09:35:20;99704.59;;;18.05;62.34
52745;BME280;38637;49.984;20.426;2022-09-03T09:37:46;99715.78;;;18.13;62.20
52745;BME280;38637;49.984;20.426;2022-09-03T09:40:20;99705.03;;;18.26;61.98
52745;BME280;38637;49.984;20.426;2022-09-03T09:42:46;99714.81;;;18.37;61.56
52745;BME280;38637;49.984;20.426;2022-09-03T09:45:12;99718.50;;;18.46;61.26
52745;BME280;38637;49.984;20.426;2022-09-03T09:47:37;99709.78;;;18.53;61.24
52745;BME280;38637;49.984;20.426;2022-09-03T09:50:14;99719.13;;;18.57;61.14
52745;BME280;38637;49.984;20.426;2022-09-03T09:52:40;99714.09;;;18.59;60.80
52745;BME280;38637;49.984;20.426;2022-09-03T09:55:07;99720.97;;;18.62;60.80
52745;BME280;38637;49.984;20.426;2022-09-03T09:57:32;99719.63;;;18.59;60.60
52745;BME280;38637;49.984;20.426;2022-09-03T10:00:16;99712.56;;;18.53;60.54
52745;BME280;38637;49.984;20.426;2022-09-03T10:02:49;99715.75;;;18.46;60.84
52745;BME280;38637;49.984;20.426;2022-09-03T10:05:19;99717.25;;;18.38;60.67
52745;BME280;38637;49.984;20.426;2022-09-03T10:07:53;99712.66;;;18.34;61.14
52745;BME280;38637;49.984;20.426;2022-09-03T10:10:19;99719.19;;;18.38;60.98
52745;BME280;38637;49.984;20.426;2022-09-03T10:15:13;99713.28;;;18.58;60.52
52745;BME280;38637;49.984;20.426;2022-09-03T10:20:30;99714.84;;;18.92;61.15
52745;BME280;38637;49.984;20.426;2022-09-03T10:28:25;99700.03;;;19.24;59.14
52745;BME280;38637;49.984;20.426;2022-09-03T10:33:26;99693.91;;;19.14;58.58
52745;BME280;38637;49.984;20.426;2022-09-03T10:36:17;99687.34;;;19.10;59.08
52745;BME280;38637;49.984;20.426;2022-09-03T10:38:40;99699.03;;;19.06;58.88
52745;BME280;38637;49.984;20.426;2022-09-03T10:46:16;99689.59;;;18.66;59.43
52745;BME280;38637;49.984;20.426;2022-09-03T10:51:35;99690.63;;;18.56;60.03
52745;BME280;38637;49.984;20.426;2022-09-03T10:56:34;99699.13;;;18.60;59.80
52745;BME280;38637;49.984;20.426;2022-09-03T10:59:05;99693.50;;;18.65;59.68
52745;BME280;38637;49.984;20.426;2022-09-03T11:01:36;99695.34;;;18.70;59.95
52745;BME280;38637;49.984;20.426;2022-09-03T11:06:50;99706.88;;;18.77;59.38
52745;BME280;38637;49.984;20.426;2022-09-03T11:09:19;99701.63;;;18.75;59.42
52745;BME280;38637;49.984;20.426;2022-09-03T11:14:20;99697.81;;;18.71;59.35
52745;BME280;38637;49.984;20.426;2022-09-03T11:16:51;99712.47;;;18.72;59.52
52745;BME280;38637;49.984;20.426;2022-09-03T11:19:19;99705.22;;;18.76;59.79
52745;BME280;38637;49.984;20.426;2022-09-03T11:21:49;99698.16;;;18.83;59.48
52745;BME280;38637;49.984;20.426;2022-09-03T11:24:20;99703.97;;;18.96;59.37
52745;BME280;38637;49.984;20.426;2022-09-03T11:26:49;99694.97;;;19.04;58.46
52745;BME280;38637;49.984;20.426;2022-09-03T11:32:00;99712.06;;;19.06;58.10
52745;BME280;38637;49.984;20.426;2022-09-03T11:34:31;99679.16;;;18.91;58.09
52745;BME280;38637;49.984;20.426;2022-09-03T11:37:03;99708.28;;;19.02;59.14
52745;BME280;38637;49.984;20.426;2022-09-03T11:39:33;99705.41;;;19.07;58.63
52745;BME280;38637;49.984;20.426;2022-09-03T11:42:03;99696.97;;;19.12;58.55
52745;BME280;38637;49.984;20.426;2022-09-03T11:44:36;99697.69;;;19.18;58.10
52745;BME280;38637;49.984;20.426;2022-09-03T11:47:11;99696.88;;;19.17;58.06
52745;BME280;38637;49.984;20.426;2022-09-03T11:49:42;99689.56;;;19.21;57.95
52745;BME280;38637;49.984;20.426;2022-09-03T11:52:08;99688.03;;;19.15;57.27
52745;BME280;38637;49.984;20.426;2022-09-03T11:54:44;99675.97;;;19.11;57.60
52745;BME280;38637;49.984;20.426;2022-09-03T11:57:14;99681.69;;;19.15;58.08
52745;BME280;38637;49.984;20.426;2022-09-03T11:59:43;99684.66;;;19.18;58.32
52745;BME280;38637;49.984;20.426;2022-09-03T12:02:18;99674.41;;;19.19;58.01
52745;BME280;38637;49.984;20.426;2022-09-03T12:07:23;99678.91;;;19.28;57.54
52745;BME280;38637;49.984;20.426;2022-09-03T12:17:54;99678.75;;;19.47;56.99
52745;BME280;38637;49.984;20.426;2022-09-03T12:20:39;99670.91;;;19.49;56.94
52745;BME280;38637;49.984;20.426;2022-09-03T12:23:05;99660.78;;;19.45;56.75
52745;BME280;38637;49.984;20.426;2022-09-03T12:25:31;99657.66;;;19.38;57.34
52745;BME280;38637;49.984;20.426;2022-09-03T12:27:56;99670.97;;;19.36;57.62
52745;BME280;38637;49.984;20.426;2022-09-03T12:30:24;99674.03;;;19.34;57.73
52745;BME280;38637;49.984;20.426;2022-09-03T12:32:50;99670.16;;;19.35;57.77
52745;BME280;38637;49.984;20.426;2022-09-03T12:35:20;99663.81;;;19.35;57.24
52745;BME280;38637;49.984;20.426;2022-09-03T12:37:46;99661.34;;;19.33;56.88
52745;BME280;38637;49.984;20.426;2022-09-03T12:40:30;99666.19;;;19.27;57.69
52745;BME280;38637;49.984;20.426;2022-09-03T12:42:59;99669.13;;;19.31;58.06
52745;BME280;38637;49.984;20.426;2022-09-03T12:45:40;99667.22;;;19.32;57.86
52745;BME280;38637;49.984;20.426;2022-09-03T12:48:11;99665.88;;;19.29;57.71
52745;BME280;38637;49.984;20.426;2022-09-03T12:50:36;99668.03;;;19.32;58.33
52745;BME280;38637;49.984;20.426;2022-09-03T12:53:02;99659.72;;;19.32;58.54
52745;BME280;38637;49.984;20.426;2022-09-03T13:00:20;99652.09;;;19.38;57.53
52745;BME280;38637;49.984;20.426;2022-09-03T13:02:49;99659.56;;;19.37;58.00
52745;BME280;38637;49.984;20.426;2022-09-03T13:05:24;99657.94;;;19.36;57.87
52745;BME280;38637;49.984;20.426;2022-09-03T13:07:51;99651.25;;;19.37;57.77
52745;BME280;38637;49.984;20.426;2022-09-03T13:12:47;99650.78;;;19.35;58.27
52745;BME280;38637;49.984;20.426;2022-09-03T13:15:17;99651.59;;;19.36;57.76
52745;BME280;38637;49.984;20.426;2022-09-03T13:20:50;99647.38;;;19.38;57.45
52745;BME280;38637;49.984;20.426;2022-09-03T13:23:24;99645.19;;;19.49;57.79
52745;BME280;38637;49.984;20.426;2022-09-03T13:28:45;99635.59;;;19.69;58.05
52745;BME280;38637;49.984;20.426;2022-09-03T13:34:21;99638.78;;;19.85;56.84
52745;BME280;38637;49.984;20.426;2022-09-03T13:36:57;99642.94;;;19.96;56.70
52745;BME280;38637;49.984;20.426;2022-09-03T13:39:46;99644.59;;;20.06;56.41
52745;BME280;38637;49.984;20.426;2022-09-03T13:48:58;99635.75;;;20.35;54.95
52745;BME280;38637;49.984;20.426;2022-09-03T13:51:23;99632.63;;;20.28;54.94
52745;BME280;38637;49.984;20.426;2022-09-03T13:53:58;99630.03;;;20.31;55.95
52745;BME280;38637;49.984;20.426;2022-09-03T14:01:59;99625.75;;;20.25;55.26
52745;BME280;38637;49.984;20.426;2022-09-03T14:12:36;99621.03;;;20.26;55.13
52745;BME280;38637;49.984;20.426;2022-09-03T14:20:11;99635.72;;;20.26;55.77
52745;BME280;38637;49.984;20.426;2022-09-03T14:25:21;99624.38;;;20.05;55.30
52745;BME280;38637;49.984;20.426;2022-09-03T14:27:47;99625.66;;;19.99;55.65
52745;BME280;38637;49.984;20.426;2022-09-03T14:35:32;99618.63;;;20.02;55.76
52745;BME280;38637;49.984;20.426;2022-09-03T14:38:12;99616.72;;;20.02;56.03
52745;BME280;38637;49.984;20.426;2022-09-03T14:40:49;99610.78;;;19.95;55.54
52745;BME280;38637;49.984;20.426;2022-09-03T14:43:42;99614.66;;;19.85;55.57
52745;BME280;38637;49.984;20.426;2022-09-03T14:46:16;99620.66;;;19.79;56.16
52745;BME280;38637;49.984;20.426;2022-09-03T14:51:34;99620.59;;;19.70;56.40
52745;BME280;38637;49.984;20.426;2022-09-03T14:54:10;99628.09;;;19.69;56.64
52745;BME280;38637;49.984;20.426;2022-09-03T14:56:44;99623.06;;;19.71;56.91
52745;BME280;38637;49.984;20.426;2022-09-03T15:12:22;99618.38;;;19.36;58.48
52745;BME280;38637;49.984;20.426;2022-09-03T15:14:49;99624.81;;;19.31;58.38
52745;BME280;38637;49.984;20.426;2022-09-03T15:22:40;99629.06;;;19.28;58.15
52745;BME280;38637;49.984;20.426;2022-09-03T15:25:20;99623.63;;;19.23;58.58
52745;BME280;38637;49.984;20.426;2022-09-03T15:27:55;99620.88;;;19.23;58.88
52745;BME280;38637;49.984;20.426;2022-09-03T15:30:23;99623.31;;;19.25;59.20
52745;BME280;38637;49.984;20.426;2022-09-03T15:33:10;99627.13;;;19.29;59.14
52745;BME280;38637;49.984;20.426;2022-09-03T15:38:18;99615.41;;;19.32;59.25
52745;BME280;38637;49.984;20.426;2022-09-03T15:43:29;99613.44;;;19.33;59.42
52745;BME280;38637;49.984;20.426;2022-09-03T15:46:01;99615.41;;;19.32;59.89
52745;BME280;38637;49.984;20.426;2022-09-03T15:59:06;99612.88;;;19.22;60.01
52745;BME280;38637;49.984;20.426;2022-09-03T16:01:51;99616.78;;;19.21;59.93
52745;BME280;38637;49.984;20.426;2022-09-03T16:06:54;99614.13;;;19.16;59.43
52745;BME280;38637;49.984;20.426;2022-09-03T16:10:04;99612.81;;;19.13;59.35
52745;BME280;38637;49.984;20.426;2022-09-03T16:12:13;99610.66;;;19.10;59.00
52745;BME280;38637;49.984;20.426;2022-09-03T16:14:46;99614.88;;;19.08;59.22
52745;BME280;38637;49.984;20.426;2022-09-03T16:17:20;99611.59;;;19.05;59.50
52745;BME280;38637;49.984;20.426;2022-09-03T16:19:50;99614.16;;;19.02;59.64
52745;BME280;38637;49.984;20.426;2022-09-03T16:24:47;99611.50;;;18.97;59.86
52745;BME280;38637;49.984;20.426;2022-09-03T16:27:21;99610.69;;;18.96;60.27